Time,TemperatureF,DewpointF,PressureIn,WindDirection,WindDirectionDegrees,WindSpeedMPH,WindSpeedGustMPH,Humidity,HourlyPrecipIn,Conditions,Clouds,dailyrainin,SolarRadiationWatts/m^2,SoftwareType,DateUTC
2013-01-30 00:00:00,17.7,14.5,30.27,SW,216,0.0,2.0,87,0.00,,,0.00,0,Wunderground v.1.15,2013-01-30 07:00:00,
2013-01-30 00:05:00,17.4,14.2,30.27,SW,216,0.0,2.0,87,0.00,,,0.01,0,Wunderground v.1.15,2013-01-30 07:05:00,
2013-01-30 00:15:00,17.1,13.9,30.27,SW,216,0.0,1.0,87,0.00,,,0.01,0,Wunderground v.1.15,2013-01-30 07:15:00,
2013-01-30 00:25:00,17.0,14.1,30.29,SW,216,1.0,1.0,88,0.00,,,0.01,0,Wunderground v.1.15,2013-01-30 07:25:00,
2013-01-30 00:30:00,16.8,13.9,30.29,SW,216,0.0,0.0,88,0.00,,,0.01,0,Wunderground v.1.15,2013-01-30 07:30:00,
2013-01-30 00:40:00,16.3,13.4,30.29,SW,216,0.0,0.0,88,0.00,,,0.01,0,Wunderground v.1.15,2013-01-30 07:40:00,
2013-01-30 00:50:00,16.2,13.3,30.29,SW,216,0.0,0.0,88,0.00,,,0.01,0,Wunderground v.1.15,2013-01-30 07:50:00,
2013-01-30 01:00:00,16.0,13.1,30.29,SW,216,0.0,0.0,88,0.00,,,0.01,0,Wunderground v.1.15,2013-01-30 08:00:00,
2013-01-30 01:10:00,16.4,13.5,30.29,SW,216,1.0,3.0,88,0.00,,,0.01,0,Wunderground v.1.15,2013-01-30 08:10:00,
2013-01-30 01:15:00,16.4,13.7,30.29,SW,216,1.0,3.0,89,0.00,,,0.01,0,Wunderground v.1.15,2013-01-30 08:15:00,
2013-01-30 01:25:00,15.8,12.9,30.29,SW,216,0.0,3.0,88,0.00,,,0.01,0,Wunderground v.1.15,2013-01-30 08:25:00,
2013-01-30 01:30:00,15.8,12.9,30.30,SW,216,0.0,3.0,88,0.00,,,0.01,0,Wunderground v.1.15,2013-01-30 08:30:00,
2013-01-30 01:40:00,15.9,13.0,30.31,SW,216,0.0,3.0,88,0.00,,,0.01,0,Wunderground v.1.15,2013-01-30 08:40:00,
2013-01-30 01:50:00,15.9,13.0,30.31,SW,216,0.0,3.0,88,0.00,,,0.01,0,Wunderground v.1.15,2013-01-30 08:50:00,
2013-01-30 02:00:00,15.9,13.0,30.31,SW,216,0.0,3.0,88,0.00,,,0.01,0,Wunderground v.1.15,2013-01-30 09:00:00,
2013-01-30 02:10:00,15.7,12.8,30.32,SW,216,0.0,3.0,88,0.00,,,0.01,0,Wunderground v.1.15,2013-01-30 09:10:00,
2013-01-30 02:15:00,15.7,12.8,30.31,SW,216,1.0,3.0,88,0.00,,,0.01,0,Wunderground v.1.15,2013-01-30 09:15:00,
2013-01-30 02:25:00,15.4,12.2,30.31,SW,216,0.0,3.0,87,0.00,,,0.01,0,Wunderground v.1.15,2013-01-30 09:25:00,
2013-01-30 02:35:00,15.3,12.4,30.32,SW,216,0.0,3.0,88,0.00,,,0.01,0,Wunderground v.1.15,2013-01-30 09:35:00,
2013-01-30 02:45:00,14.9,11.7,30.33,SW,216,0.0,3.0,87,0.00,,,0.01,0,Wunderground v.1.15,2013-01-30 09:45:00,
2013-01-30 02:50:00,14.8,11.6,30.33,SW,216,0.0,3.0,87,0.00,,,0.01,0,Wunderground v.1.15,2013-01-30 09:50:00,
2013-01-30 02:55:00,14.7,11.5,30.33,SW,216,0.0,3.0,87,0.00,,,0.01,0,Wunderground v.1.15,2013-01-30 09:55:00,
2013-01-30 03:05:00,14.3,10.9,30.33,SW,216,0.0,3.0,86,0.00,,,0.01,0,Wunderground v.1.15,2013-01-30 10:05:00,
2013-01-30 03:15:00,14.2,11.0,30.33,SW,216,0.0,0.0,87,0.00,,,0.01,0,Wunderground v.1.15,2013-01-30 10:15:00,
2013-01-30 03:20:00,14.3,11.1,30.33,SW,216,0.0,0.0,87,0.00,,,0.01,0,Wunderground v.1.15,2013-01-30 10:20:00,
2013-01-30 03:30:00,14.2,10.8,30.34,SW,216,0.0,1.0,86,0.00,,,0.01,0,Wunderground v.1.15,2013-01-30 10:30:00,
2013-01-30 03:40:00,14.3,10.9,30.34,SW,216,0.0,0.0,86,0.00,,,0.01,0,Wunderground v.1.15,2013-01-30 10:40:00,
2013-01-30 03:45:00,14.3,10.9,30.35,SW,216,0.0,0.0,86,0.00,,,0.01,0,Wunderground v.1.15,2013-01-30 10:45:00,
2013-01-30 03:50:00,14.3,10.9,30.35,SW,216,0.0,0.0,86,0.00,,,0.01,0,Wunderground v.1.15,2013-01-30 10:50:00,
2013-01-30 03:55:00,14.3,10.9,30.36,SW,216,0.0,0.0,86,0.00,,,0.01,0,Wunderground v.1.15,2013-01-30 10:55:00,
2013-01-30 04:05:00,14.4,11.0,30.35,SW,216,0.0,0.0,86,0.00,,,0.01,0,Wunderground v.1.15,2013-01-30 11:05:00,
2013-01-30 04:15:00,14.4,11.0,30.36,SW,216,0.0,2.0,86,0.00,,,0.01,0,Wunderground v.1.15,2013-01-30 11:15:00,
2013-01-30 04:25:00,14.6,11.2,30.36,SW,216,0.0,2.0,86,0.00,,,0.01,0,Wunderground v.1.15,2013-01-30 11:25:00,
2013-01-30 04:35:00,14.6,10.9,30.35,SW,216,0.0,2.0,85,0.00,,,0.01,0,Wunderground v.1.15,2013-01-30 11:35:00,
2013-01-30 04:45:00,14.6,10.9,30.36,SW,216,0.0,2.0,85,0.00,,,0.01,0,Wunderground v.1.15,2013-01-30 11:45:00,
2013-01-30 04:55:00,14.7,11.0,30.37,SW,216,0.0,2.0,85,0.00,,,0.01,0,Wunderground v.1.15,2013-01-30 11:55:00,
2013-01-30 05:05:00,14.8,11.1,30.37,SW,215,0.0,2.0,85,0.00,,,0.01,0,Wunderground v.1.15,2013-01-30 12:05:00,
2013-01-30 05:10:00,14.9,11.2,30.37,SW,216,0.0,2.0,85,0.00,,,0.01,0,Wunderground v.1.15,2013-01-30 12:10:00,
2013-01-30 05:20:00,15.2,11.8,30.37,SW,216,0.0,2.0,86,0.00,,,0.01,0,Wunderground v.1.15,2013-01-30 12:20:00,
2013-01-30 05:25:00,15.6,12.2,30.37,SW,216,0.0,2.0,86,0.00,,,0.01,0,Wunderground v.1.15,2013-01-30 12:25:00,
2013-01-30 05:35:00,15.5,12.1,30.38,SW,216,0.0,2.0,86,0.00,,,0.01,0,Wunderground v.1.15,2013-01-30 12:35:00,
2013-01-30 05:40:00,15.7,12.5,30.38,SW,216,0.0,2.0,87,0.00,,,0.01,0,Wunderground v.1.15,2013-01-30 12:40:00,
2013-01-30 05:50:00,15.5,12.3,30.38,SW,215,0.0,2.0,87,0.00,,,0.02,0,Wunderground v.1.15,2013-01-30 12:50:00,
2013-01-30 05:55:00,15.5,12.1,30.38,SW,216,0.0,2.0,86,0.00,,,0.02,0,Wunderground v.1.15,2013-01-30 12:55:00,
2013-01-30 06:05:00,15.5,12.3,30.39,SW,216,0.0,2.0,87,0.00,,,0.02,0,Wunderground v.1.15,2013-01-30 13:05:00,
2013-01-30 06:15:00,15.4,12.0,30.39,SW,216,0.0,0.0,86,0.00,,,0.02,0,Wunderground v.1.15,2013-01-30 13:15:00,
2013-01-30 06:25:00,15.5,12.3,30.39,SW,215,0.0,0.0,87,0.00,,,0.02,0,Wunderground v.1.15,2013-01-30 13:25:00,
2013-01-30 06:35:00,16.2,13.3,30.39,SW,216,0.0,0.0,88,0.00,,,0.02,0,Wunderground v.1.15,2013-01-30 13:35:00,
2013-01-30 06:45:00,16.7,13.5,30.39,SW,216,0.0,0.0,87,0.00,,,0.02,0,Wunderground v.1.15,2013-01-30 13:45:00,
2013-01-30 06:55:00,16.9,13.7,30.39,SW,215,0.0,0.0,87,0.00,,,0.02,0,Wunderground v.1.15,2013-01-30 13:55:00,
2013-01-30 07:00:00,16.8,13.9,30.40,SW,216,0.0,0.0,88,0.00,,,0.02,0,Wunderground v.1.15,2013-01-30 14:00:00,
2013-01-30 07:10:00,16.9,14.0,30.39,SW,215,0.0,1.0,88,0.00,,,0.02,0,Wunderground v.1.15,2013-01-30 14:10:00,
2013-01-30 07:20:00,16.7,13.5,30.40,SW,216,0.0,1.0,87,0.00,,,0.02,0,Wunderground v.1.15,2013-01-30 14:20:00,
2013-01-30 07:30:00,16.7,13.8,30.39,SW,216,0.0,1.0,88,0.00,,,0.02,0,Wunderground v.1.15,2013-01-30 14:30:00,
2013-01-30 07:35:00,16.8,13.9,30.39,SW,216,0.0,1.0,88,0.00,,,0.02,5,Wunderground v.1.15,2013-01-30 14:35:00,
2013-01-30 07:45:00,17.3,14.4,30.40,SW,216,0.0,1.0,88,0.00,,,0.02,7,Wunderground v.1.15,2013-01-30 14:45:00,
2013-01-30 07:55:00,17.4,14.2,30.40,SW,216,0.0,1.0,87,0.00,,,0.02,9,Wunderground v.1.15,2013-01-30 14:55:00,
2013-01-30 08:05:00,17.6,14.4,30.40,SW,216,0.0,1.0,87,0.00,,,0.02,12,Wunderground v.1.15,2013-01-30 15:05:00,
2013-01-30 08:10:00,17.7,14.5,30.40,SW,216,0.0,1.0,87,0.00,,,0.02,12,Wunderground v.1.15,2013-01-30 15:10:00,
2013-01-30 08:20:00,17.8,14.6,30.41,SW,216,0.0,1.0,87,0.00,,,0.02,18,Wunderground v.1.15,2013-01-30 15:20:00,
2013-01-30 08:30:00,18.5,15.5,30.41,SW,216,1.0,1.0,88,0.00,,,0.02,25,Wunderground v.1.15,2013-01-30 15:30:00,
2013-01-30 08:35:00,18.8,15.8,30.41,SW,216,1.0,2.0,88,0.00,,,0.02,25,Wunderground v.1.15,2013-01-30 15:35:00,
2013-01-30 08:45:00,18.6,15.4,30.41,SW,216,0.0,1.0,87,0.00,,,0.02,30,Wunderground v.1.15,2013-01-30 15:45:00,
2013-01-30 08:50:00,18.5,15.3,30.41,SW,216,0.0,1.0,87,0.00,,,0.02,33,Wunderground v.1.15,2013-01-30 15:50:00,
2013-01-30 09:00:00,18.8,15.6,30.41,SW,216,0.0,1.0,87,0.00,,,0.02,35,Wunderground v.1.15,2013-01-30 16:00:00,
2013-01-30 09:05:00,18.9,15.7,30.40,SW,216,0.0,1.0,87,0.00,,,0.02,39,Wunderground v.1.15,2013-01-30 16:05:00,
2013-01-30 09:15:00,19.1,15.9,30.40,SW,216,0.0,0.0,87,0.00,,,0.02,39,Wunderground v.1.15,2013-01-30 16:15:00,
2013-01-30 09:25:00,19.5,16.3,30.40,SW,216,0.0,0.0,87,0.00,,,0.02,37,Wunderground v.1.15,2013-01-30 16:25:00,
2013-01-30 09:35:00,19.8,16.6,30.39,SW,216,0.0,1.0,87,0.00,,,0.02,42,Wunderground v.1.15,2013-01-30 16:35:00,
2013-01-30 09:40:00,19.8,16.3,30.39,SW,216,0.0,2.0,86,0.00,,,0.02,39,Wunderground v.1.15,2013-01-30 16:40:00,
2013-01-30 09:50:00,20.2,16.7,30.39,SW,216,1.0,2.0,86,0.00,,,0.02,40,Wunderground v.1.15,2013-01-30 16:50:00,
2013-01-30 10:00:00,20.9,17.4,30.40,SW,216,1.0,1.0,86,0.00,,,0.02,40,Wunderground v.1.15,2013-01-30 17:00:00,
2013-01-30 10:10:00,21.5,18.0,30.40,SW,216,0.0,3.0,86,0.00,,,0.02,44,Wunderground v.1.15,2013-01-30 17:10:00,
2013-01-30 10:15:00,22.4,19.1,30.40,SW,216,1.0,3.0,87,0.00,,,0.02,44,Wunderground v.1.15,2013-01-30 17:15:00,
2013-01-30 10:25:00,22.7,19.1,30.40,SW,216,1.0,3.0,86,0.00,,,0.02,49,Wunderground v.1.15,2013-01-30 17:25:00,
2013-01-30 10:35:00,22.8,19.5,30.40,SW,216,2.0,5.0,87,0.00,,,0.02,62,Wunderground v.1.15,2013-01-30 17:35:00,
2013-01-30 10:50:00,22.9,19.6,30.40,SW,216,1.0,3.0,87,0.00,,,0.02,54,Wunderground v.1.15,2013-01-30 17:50:00,
2013-01-30 11:00:00,22.9,19.9,30.40,SW,216,2.0,2.0,88,0.00,,,0.02,62,Wunderground v.1.15,2013-01-30 18:00:00,
2013-01-30 11:10:00,22.9,19.9,30.40,SW,215,3.0,3.0,88,0.00,,,0.03,53,Wunderground v.1.15,2013-01-30 18:10:00,
2013-01-30 11:20:00,23.0,20.2,30.40,SW,216,2.0,3.0,89,0.00,,,0.03,51,Wunderground v.1.15,2013-01-30 18:20:00,
2013-01-30 11:30:00,22.9,20.1,30.40,SW,215,3.0,3.0,89,0.00,,,0.03,70,Wunderground v.1.15,2013-01-30 18:30:00,
2013-01-30 11:40:00,23.0,20.2,30.40,SW,216,3.0,3.0,89,0.00,,,0.03,62,Wunderground v.1.15,2013-01-30 18:40:00,
2013-01-30 11:50:00,22.9,20.4,30.40,SW,216,2.0,3.0,90,0.00,,,0.04,44,Wunderground v.1.15,2013-01-30 18:50:00,
2013-01-30 11:55:00,22.9,20.4,30.40,SW,216,2.0,3.0,90,0.00,,,0.04,49,Wunderground v.1.15,2013-01-30 18:55:00,
2013-01-30 12:05:00,23.2,20.4,30.40,SW,216,3.0,3.0,89,0.00,,,0.04,47,Wunderground v.1.15,2013-01-30 19:05:00,
2013-01-30 12:15:00,23.5,20.7,30.40,SW,216,3.0,4.0,89,0.00,,,0.04,53,Wunderground v.1.15,2013-01-30 19:15:00,
2013-01-30 12:20:00,23.5,20.5,30.39,SW,216,4.0,5.0,88,0.00,,,0.04,69,Wunderground v.1.15,2013-01-30 19:20:00,
2013-01-30 12:30:00,23.8,20.8,30.39,SW,216,4.0,4.0,88,0.00,,,0.05,81,Wunderground v.1.15,2013-01-30 19:30:00,
2013-01-30 12:40:00,23.9,20.6,30.38,SW,216,2.0,2.0,87,0.00,,,0.05,81,Wunderground v.1.15,2013-01-30 19:40:00,
2013-01-30 12:50:00,24.2,21.2,30.38,SW,216,2.0,2.0,88,0.00,,,0.05,91,Wunderground v.1.15,2013-01-30 19:50:00,
2013-01-30 13:00:00,24.4,21.1,30.37,SW,216,2.0,5.0,87,0.00,,,0.05,90,Wunderground v.1.15,2013-01-30 20:00:00,
2013-01-30 13:10:00,24.4,20.8,30.37,SW,216,5.0,8.0,86,0.00,,,0.05,90,Wunderground v.1.15,2013-01-30 20:10:00,
2013-01-30 13:20:00,24.7,21.4,30.37,SW,216,4.0,4.0,87,0.00,,,0.05,83,Wunderground v.1.15,2013-01-30 20:20:00,
2013-01-30 13:30:00,24.6,21.0,30.36,SW,216,4.0,4.0,86,0.00,,,0.05,74,Wunderground v.1.15,2013-01-30 20:30:00,
2013-01-30 13:35:00,24.8,21.2,30.36,SW,216,4.0,6.0,86,0.00,,,0.05,76,Wunderground v.1.15,2013-01-30 20:35:00,
2013-01-30 13:45:00,24.9,21.3,30.37,SW,216,4.0,6.0,86,0.00,,,0.05,72,Wunderground v.1.15,2013-01-30 20:45:00,
2013-01-30 13:55:00,24.7,21.1,30.36,SW,216,5.0,6.0,86,0.00,,,0.05,67,Wunderground v.1.15,2013-01-30 20:55:00,
2013-01-30 14:05:00,24.7,20.8,30.36,SW,216,4.0,6.0,85,0.00,,,0.05,72,Wunderground v.1.15,2013-01-30 21:05:00,
2013-01-30 14:10:00,24.9,21.6,30.36,SW,216,4.0,4.0,87,0.00,,,0.05,65,Wunderground v.1.15,2013-01-30 21:10:00,
2013-01-30 14:20:00,25.1,21.5,30.35,SW,216,3.0,6.0,86,0.00,,,0.05,67,Wunderground v.1.15,2013-01-30 21:20:00,
2013-01-30 14:25:00,25.4,22.1,30.35,SW,216,3.0,6.0,87,0.00,,,0.05,67,Wunderground v.1.15,2013-01-30 21:25:00,
2013-01-30 14:35:00,25.6,22.0,30.35,SW,216,2.0,5.0,86,0.00,,,0.05,54,Wunderground v.1.15,2013-01-30 21:35:00,
2013-01-30 14:40:00,25.7,22.1,30.35,SW,216,2.0,2.0,86,0.00,,,0.05,49,Wunderground v.1.15,2013-01-30 21:40:00,
2013-01-30 14:45:00,25.6,21.7,30.35,SW,216,2.0,6.0,85,0.00,,,0.05,46,Wunderground v.1.15,2013-01-30 21:45:00,
2013-01-30 14:50:00,25.8,22.2,30.36,SW,216,2.0,6.0,86,0.00,,,0.05,40,Wunderground v.1.15,2013-01-30 21:50:00,
2013-01-30 15:00:00,25.4,21.5,30.36,SW,216,3.0,3.0,85,0.00,,,0.06,28,Wunderground v.1.15,2013-01-30 22:00:00,
2013-01-30 15:05:00,25.4,21.8,30.36,SW,216,3.0,3.0,86,0.00,,,0.06,30,Wunderground v.1.15,2013-01-30 22:05:00,
2013-01-30 15:15:00,25.4,22.1,30.36,SW,216,1.0,2.0,87,0.00,,,0.06,30,Wunderground v.1.15,2013-01-30 22:15:00,
2013-01-30 15:25:00,24.9,21.6,30.36,SW,216,0.0,0.0,87,0.00,,,0.06,28,Wunderground v.1.15,2013-01-30 22:25:00,
2013-01-30 17:30:00,24.8,22.0,30.38,SW,216,0.0,4.0,89,0.00,,,0.08,0,Wunderground v.1.15,2013-01-31 00:30:00,
2013-01-30 17:40:00,25.0,22.5,30.39,SW,216,0.0,4.0,90,0.00,,,0.08,0,Wunderground v.1.15,2013-01-31 00:40:00,
2013-01-30 17:45:00,24.9,22.1,30.39,SW,216,0.0,4.0,89,0.00,,,0.08,0,Wunderground v.1.15,2013-01-31 00:45:00,
2013-01-30 17:55:00,24.5,21.7,30.39,SW,216,0.0,4.0,89,0.00,,,0.09,0,Wunderground v.1.15,2013-01-31 00:55:00,
2013-01-30 18:05:00,24.5,21.7,30.39,SW,216,0.0,1.0,89,0.00,,,0.09,0,Wunderground v.1.15,2013-01-31 01:05:00,
2013-01-30 18:15:00,24.6,21.8,30.39,SW,216,0.0,0.0,89,0.00,,,0.09,0,Wunderground v.1.15,2013-01-31 01:15:00,
2013-01-30 18:20:00,24.7,21.9,30.39,SW,216,0.0,2.0,89,0.00,,,0.09,0,Wunderground v.1.15,2013-01-31 01:20:00,
2013-01-30 18:30:00,25.0,22.2,30.39,SW,216,0.0,0.0,89,0.00,,,0.09,0,Wunderground v.1.15,2013-01-31 01:30:00,
2013-01-30 18:40:00,24.8,22.0,30.39,SW,216,0.0,1.0,89,0.00,,,0.09,0,Wunderground v.1.15,2013-01-31 01:40:00,
2013-01-30 18:50:00,24.7,21.9,30.39,SW,216,0.0,0.0,89,0.00,,,0.09,0,Wunderground v.1.15,2013-01-31 01:50:00,
2013-01-30 18:55:00,24.9,22.1,30.39,SW,216,0.0,0.0,89,0.00,,,0.09,0,Wunderground v.1.15,2013-01-31 01:55:00,
2013-01-30 19:00:00,24.9,22.1,30.39,SW,216,0.0,0.0,89,0.00,,,0.09,0,Wunderground v.1.15,2013-01-31 02:00:00,
2013-01-30 19:10:00,25.2,22.4,30.40,SW,216,0.0,0.0,89,0.00,,,0.10,0,Wunderground v.1.15,2013-01-31 02:10:00,
2013-01-30 19:15:00,25.3,22.8,30.40,SW,216,0.0,2.0,90,0.00,,,0.10,0,Wunderground v.1.15,2013-01-31 02:15:00,
2013-01-30 19:20:00,25.6,23.1,30.40,SW,216,0.0,0.0,90,0.00,,,0.10,0,Wunderground v.1.15,2013-01-31 02:20:00,
2013-01-30 19:25:00,25.3,22.5,30.40,SW,216,0.0,0.0,89,0.00,,,0.10,0,Wunderground v.1.15,2013-01-31 02:25:00,
2013-01-30 19:35:00,25.1,22.3,30.40,SW,216,0.0,0.0,89,0.00,,,0.10,0,Wunderground v.1.15,2013-01-31 02:35:00,
2013-01-30 19:40:00,25.1,22.3,30.40,SW,216,0.0,3.0,89,0.00,,,0.10,0,Wunderground v.1.15,2013-01-31 02:40:00,
2013-01-30 19:45:00,25.1,22.6,30.40,SW,216,1.0,3.0,90,0.00,,,0.10,0,Wunderground v.1.15,2013-01-31 02:45:00,
2013-01-30 19:50:00,25.3,22.8,30.40,SW,216,1.0,1.0,90,0.00,,,0.10,0,Wunderground v.1.15,2013-01-31 02:50:00,
2013-01-30 20:00:00,25.4,22.9,30.40,SW,216,1.0,1.0,90,0.00,,,0.10,0,Wunderground v.1.15,2013-01-31 03:00:00,
2013-01-30 20:05:00,25.5,23.2,30.40,SW,216,1.0,1.0,91,0.00,,,0.10,0,Wunderground v.1.15,2013-01-31 03:05:00,
2013-01-30 20:15:00,25.2,22.9,30.40,SW,216,2.0,3.0,91,0.00,,,0.10,0,Wunderground v.1.15,2013-01-31 03:15:00,
2013-01-30 20:20:00,25.4,23.1,30.41,SW,216,2.0,2.0,91,0.00,,,0.10,0,Wunderground v.1.15,2013-01-31 03:20:00,
2013-01-30 20:30:00,25.0,22.7,30.41,SW,216,2.0,2.0,91,0.00,,,0.10,0,Wunderground v.1.15,2013-01-31 03:30:00,
2013-01-30 20:35:00,24.7,22.4,30.41,SW,216,1.0,2.0,91,0.00,,,0.10,0,Wunderground v.1.15,2013-01-31 03:35:00,
2013-01-30 20:45:00,24.7,22.4,30.41,SW,216,1.0,1.0,91,0.00,,,0.10,0,Wunderground v.1.15,2013-01-31 03:45:00,
2013-01-30 20:55:00,24.9,22.6,30.41,SW,216,1.0,3.0,91,0.00,,,0.10,0,Wunderground v.1.15,2013-01-31 03:55:00,
2013-01-30 21:00:00,25.1,22.8,30.41,SW,216,1.0,2.0,91,0.00,,,0.10,0,Wunderground v.1.15,2013-01-31 04:00:00,
2013-01-30 21:05:00,25.2,22.9,30.41,SW,216,1.0,2.0,91,0.00,,,0.10,0,Wunderground v.1.15,2013-01-31 04:05:00,
2013-01-30 21:15:00,24.9,22.6,30.40,SW,216,1.0,5.0,91,0.00,,,0.10,0,Wunderground v.1.15,2013-01-31 04:15:00,
2013-01-30 21:25:00,24.7,22.2,30.41,SW,216,2.0,2.0,90,0.00,,,0.10,0,Wunderground v.1.15,2013-01-31 04:25:00,
2013-01-30 21:30:00,24.6,22.1,30.41,SW,216,2.0,4.0,90,0.00,,,0.10,0,Wunderground v.1.15,2013-01-31 04:30:00,
2013-01-30 21:35:00,24.7,22.4,30.41,SW,216,2.0,4.0,91,0.00,,,0.10,0,Wunderground v.1.15,2013-01-31 04:35:00,
2013-01-30 21:40:00,24.5,22.0,30.41,SW,216,2.0,3.0,90,0.00,,,0.10,0,Wunderground v.1.15,2013-01-31 04:40:00,
2013-01-30 21:50:00,24.3,21.8,30.41,SW,216,4.0,4.0,90,0.00,,,0.10,0,Wunderground v.1.15,2013-01-31 04:50:00,
2013-01-30 21:55:00,24.2,22.0,30.41,SW,215,4.0,4.0,91,0.00,,,0.10,0,Wunderground v.1.15,2013-01-31 04:55:00,
2013-01-30 22:05:00,24.4,22.2,30.40,SW,216,4.0,5.0,91,0.00,,,0.10,0,Wunderground v.1.15,2013-01-31 05:05:00,
2013-01-30 22:10:00,24.3,22.1,30.40,SW,216,3.0,3.0,91,0.00,,,0.10,0,Wunderground v.1.15,2013-01-31 05:10:00,
2013-01-30 22:15:00,24.2,22.0,30.40,SW,216,2.0,5.0,91,0.00,,,0.10,0,Wunderground v.1.15,2013-01-31 05:15:00,
2013-01-30 22:25:00,24.9,22.9,30.40,SW,216,2.0,5.0,92,0.00,,,0.10,0,Wunderground v.1.15,2013-01-31 05:25:00,
2013-01-30 22:30:00,24.9,22.6,30.40,SW,216,2.0,5.0,91,0.00,,,0.10,0,Wunderground v.1.15,2013-01-31 05:30:00,
2013-01-30 22:35:00,24.5,22.2,30.41,SW,216,2.0,5.0,91,0.00,,,0.11,0,Wunderground v.1.15,2013-01-31 05:35:00,
2013-01-30 22:45:00,24.4,22.2,30.41,SW,216,3.0,6.0,91,0.00,,,0.11,0,Wunderground v.1.15,2013-01-31 05:45:00,
2013-01-30 22:50:00,24.3,21.8,30.41,SW,216,3.0,5.0,90,0.00,,,0.11,0,Wunderground v.1.15,2013-01-31 05:50:00,
2013-01-30 22:55:00,24.3,21.8,30.41,SW,216,3.0,5.0,90,0.00,,,0.11,0,Wunderground v.1.15,2013-01-31 05:55:00,
2013-01-30 23:05:00,24.3,21.8,30.41,SW,216,4.0,5.0,90,0.00,,,0.11,0,Wunderground v.1.15,2013-01-31 06:05:00,
2013-01-30 23:15:00,24.6,22.1,30.40,SW,216,3.0,5.0,90,0.00,,,0.11,0,Wunderground v.1.15,2013-01-31 06:15:00,
2013-01-30 23:20:00,24.5,21.7,30.41,SW,216,2.0,5.0,89,0.00,,,0.11,0,Wunderground v.1.15,2013-01-31 06:20:00,
2013-01-30 23:25:00,24.7,22.2,30.41,SW,216,2.0,5.0,90,0.00,,,0.11,0,Wunderground v.1.15,2013-01-31 06:25:00,
2013-01-30 23:35:00,24.6,21.8,30.42,SW,216,1.0,5.0,89,0.00,,,0.11,0,Wunderground v.1.15,2013-01-31 06:35:00,
2013-01-30 23:45:00,24.9,22.1,30.42,SW,216,0.0,5.0,89,0.00,,,0.11,0,Wunderground v.1.15,2013-01-31 06:45:00,
2013-01-30 23:55:00,25.1,22.3,30.41,SW,216,0.0,5.0,89,0.00,,,0.11,0,Wunderground v.1.15,2013-01-31 06:55:00,